Time;durP1;ratioP1;P1;durP2;ratioP2;P2;SDS_P1;SDS_P2;PMS_P1;PMS_P2;Temp;Humidity;BMP_temperature;BMP_pressure;BME280_temperature;BME280_humidity;BME280_pressure;Samples;Min_cycle;Max_cycle;Signal;HPM_P1;HPM_P2
2022/01/18 00:01:26;;;;;;;26.80;5.35;;;5.20;99.90;;;;;;4944146;28;20104;-72
2022/01/18 00:03:52;;;;;;;23.95;4.20;;;5.20;99.90;;;;;;4942696;28;20090;-73
2022/01/18 00:06:17;;;;;;;27.47;5.37;;;5.20;99.90;;;;;;4941799;28;20388;-73
2022/01/18 00:08:43;;;;;;;25.87;4.57;;;5.10;99.90;;;;;;4952629;28;20438;-73
2022/01/18 00:11:12;;;;;;;30.70;4.20;;;5.10;99.90;;;;;;4944573;28;20047;-72
2022/01/18 00:13:46;;;;;;;30.17;3.40;;;5.10;99.90;;;;;;4946391;28;20467;-72
2022/01/18 00:16:29;;;;;;;19.48;3.67;;;5.10;99.90;;;;;;4930561;28;20433;-73
2022/01/18 00:18:58;;;;;;;28.90;4.03;;;5.10;99.90;;;;;;4940906;28;20042;-73
2022/01/18 00:21:37;;;;;;;23.95;4.45;;;5.10;99.90;;;;;;4944581;28;20036;-72
2022/01/18 00:24:03;;;;;;;32.83;4.28;;;5.00;99.90;;;;;;4939778;28;20542;-73
2022/01/18 00:26:31;;;;;;;35.55;4.38;;;5.10;99.90;;;;;;4932638;28;20401;-73
2022/01/18 00:29:03;;;;;;;25.83;4.05;;;5.10;99.90;;;;;;4941378;28;20106;-73
2022/01/18 00:31:39;;;;;;;36.97;4.70;;;5.10;99.90;;;;;;4939709;28;20091;-73
2022/01/18 00:34:11;;;;;;;35.78;5.15;;;5.10;99.90;;;;;;4944003;28;20126;-73
2022/01/18 00:39:05;;;;;;;22.40;4.07;;;5.10;99.90;;;;;;4936657;28;20506;-73
2022/01/18 00:41:30;;;;;;;22.70;4.05;;;5.10;99.90;;;;;;4940482;28;20154;-73
2022/01/18 00:43:56;;;;;;;25.83;3.63;;;5.10;99.90;;;;;;4945197;28;20185;-72
2022/01/18 00:46:23;;;;;;;21.00;6.07;;;5.10;99.90;;;;;;4942668;28;20527;-73
2022/01/18 00:48:52;;;;;;;36.58;4.03;;;5.20;99.90;;;;;;4941206;28;20078;-73
2022/01/18 00:51:18;;;;;;;32.30;3.83;;;5.20;99.90;;;;;;4946344;28;20133;-73
2022/01/18 00:53:45;;;;;;;25.95;4.10;;;5.20;99.90;;;;;;4943410;28;20074;-72
2022/01/18 00:58:38;;;;;;;25.75;4.25;;;5.20;99.90;;;;;;4935541;28;20047;-72
2022/01/18 01:01:04;;;;;;;21.63;3.90;;;5.20;99.90;;;;;;4944383;28;20039;-73
2022/01/18 01:03:29;;;;;;;33.33;4.07;;;5.20;99.90;;;;;;4945433;28;20456;-72
2022/01/18 01:05:55;;;;;;;46.30;4.67;;;5.20;99.90;;;;;;4945136;28;20050;-73
2022/01/18 01:08:21;;;;;;;20.27;4.27;;;5.20;99.90;;;;;;4937461;28;20480;-73
2022/01/18 01:10:47;;;;;;;25.97;3.53;;;5.20;99.90;;;;;;4942878;28;20050;-73
2022/01/18 01:13:13;;;;;;;20.47;2.77;;;5.10;99.90;;;;;;4963072;28;20045;-72
2022/01/18 01:18:21;;;;;;;29.75;4.22;;;5.20;99.90;;;;;;4945510;28;20453;-73
2022/01/18 01:34:39;;;;;;;34.30;3.33;;;5.30;99.90;;;;;;4936536;28;20047;-73
2022/01/18 01:42:57;;;;;;;23.38;3.92;;;5.30;99.90;;;;;;4942648;28;20046;-73
2022/01/18 01:45:25;;;;;;;28.20;4.15;;;5.30;99.90;;;;;;4947715;28;20039;-72
2022/01/18 01:47:52;;;;;;;20.75;2.90;;;5.30;99.90;;;;;;4944811;28;20043;-73
2022/01/18 01:50:21;;;;;;;28.15;3.72;;;5.30;99.90;;;;;;4957138;28;20047;-73
2022/01/18 01:52:49;;;;;;;26.55;4.25;;;5.40;99.90;;;;;;4946058;28;20043;-73
2022/01/18 01:55:16;;;;;;;22.73;2.90;;;5.40;99.90;;;;;;4945585;28;20135;-73
2022/01/18 01:57:42;;;;;;;29.15;2.95;;;5.40;99.90;;;;;;4946000;28;20050;-73
2022/01/18 02:00:12;;;;;;;18.97;3.17;;;5.40;99.90;;;;;;4941617;28;20039;-73
2022/01/18 02:02:38;;;;;;;26.80;3.40;;;5.40;99.90;;;;;;4946615;28;20058;-72
2022/01/18 02:05:05;;;;;;;27.97;2.83;;;5.50;99.90;;;;;;4940220;29;20043;-72
2022/01/18 02:07:31;;;;;;;26.73;3.53;;;5.50;99.90;;;;;;4932339;28;20114;-72
2022/01/18 02:09:57;;;;;;;24.73;3.70;;;5.50;99.90;;;;;;4936223;28;20258;-73
2022/01/18 02:12:23;;;;;;;39.75;3.83;;;5.50;99.90;;;;;;4941951;28;20049;-73
2022/01/18 02:14:56;;;;;;;23.65;3.70;;;5.50;99.90;;;;;;4946074;28;20378;-73
2022/01/18 02:22:51;;;;;;;21.98;2.95;;;5.60;99.90;;;;;;4945524;28;20516;-73
2022/01/18 02:25:17;;;;;;;21.47;3.27;;;5.60;99.90;;;;;;4946798;28;20082;-73
2022/01/18 02:27:42;;;;;;;21.10;3.27;;;5.60;99.90;;;;;;4937261;28;20778;-73
2022/01/18 02:30:11;;;;;;;20.93;3.20;;;5.60;99.90;;;;;;4943748;28;20035;-73
2022/01/18 02:32:37;;;;;;;21.92;2.78;;;5.60;99.90;;;;;;4947801;28;20086;-72
2022/01/18 02:35:04;;;;;;;15.67;3.77;;;5.60;99.90;;;;;;4941497;28;20086;-73
2022/01/18 02:37:29;;;;;;;26.67;3.38;;;5.70;99.90;;;;;;4944824;28;20078;-73
2022/01/18 02:39:55;;;;;;;29.10;5.20;;;5.50;99.90;;;;;;4942348;28;20078;-72
2022/01/18 02:42:25;;;;;;;28.47;4.03;;;5.50;99.90;;;;;;4941068;28;20477;-72
2022/01/18 02:44:52;;;;;;;17.83;2.78;;;5.50;99.90;;;;;;5033262;23;20523;-66
2022/01/18 02:47:22;;;;;;;18.98;3.80;;;5.40;99.90;;;;;;4952243;28;20054;-66
2022/01/18 02:49:48;;;;;;;12.63;3.05;;;5.40;99.90;;;;;;4952189;28;20346;-66
2022/01/18 02:52:16;;;;;;;22.55;3.25;;;5.30;99.90;;;;;;4952550;28;20040;-66
2022/01/18 02:54:42;;;;;;;9.38;2.47;;;5.30;99.90;;;;;;4952975;29;20043;-65
2022/01/18 02:57:12;;;;;;;21.40;2.78;;;5.30;99.90;;;;;;4951691;29;20055;-66
2022/01/18 02:59:49;;;;;;;25.85;3.78;;;5.20;99.90;;;;;;4951667;28;20243;-66
2022/01/18 03:05:06;;;;;;;26.77;3.40;;;5.20;99.90;;;;;;4943322;29;20059;-66
2022/01/18 03:07:32;;;;;;;28.83;3.63;;;5.20;99.90;;;;;;4950777;28;20127;-66
2022/01/18 03:09:58;;;;;;;18.70;3.58;;;5.10;99.90;;;;;;4950362;29;20035;-66
2022/01/18 03:12:24;;;;;;;24.60;4.27;;;5.10;99.90;;;;;;4950813;29;20094;-66
2022/01/18 03:14:50;;;;;;;17.90;3.20;;;5.10;99.90;;;;;;4951039;29;20106;-66
2022/01/18 03:17:15;;;;;;;20.83;3.50;;;5.10;99.90;;;;;;4950462;28;20709;-66
2022/01/18 03:19:41;;;;;;;17.93;2.73;;;5.10;99.90;;;;;;4950597;28;20051;-66
2022/01/18 03:22:07;;;;;;;15.53;2.80;;;5.00;99.90;;;;;;4951589;28;20035;-66
2022/01/18 03:30:06;;;;;;;15.25;3.08;;;5.00;99.90;;;;;;4950488;29;20039;-66
2022/01/18 03:32:32;;;;;;;15.13;3.20;;;5.00;99.90;;;;;;4952081;28;20039;-66
2022/01/18 03:34:58;;;;;;;15.07;3.23;;;5.10;99.90;;;;;;4951285;28;20412;-66
2022/01/18 03:37:23;;;;;;;10.73;2.57;;;5.10;99.90;;;;;;4966618;28;20358;-66
2022/01/18 03:39:49;;;;;;;16.10;3.17;;;5.10;99.90;;;;;;4970794;28;20039;-66
2022/01/18 03:44:49;;;;;;;20.67;4.05;;;5.10;99.90;;;;;;4947165;28;20039;-65
2022/01/18 03:47:17;;;;;;;21.40;3.17;;;5.20;99.90;;;;;;4945329;29;20130;-65
2022/01/18 03:49:43;;;;;;;15.45;2.83;;;5.20;99.90;;;;;;4941516;28;20047;-65
2022/01/18 03:52:09;;;;;;;15.63;2.95;;;5.20;99.90;;;;;;4939341;28;20040;-65
2022/01/18 03:54:42;;;;;;;15.23;3.28;;;5.30;99.90;;;;;;4951054;28;20078;-65
2022/01/18 03:57:08;;;;;;;14.88;3.03;;;5.30;99.90;;;;;;4943646;28;20054;-65
2022/01/18 03:59:33;;;;;;;11.73;2.83;;;5.30;99.90;;;;;;4946038;28;20411;-65
2022/01/18 04:01:59;;;;;;;11.50;2.97;;;5.40;99.90;;;;;;4944660;28;20043;-65
2022/01/18 04:04:25;;;;;;;7.23;2.40;;;5.40;99.90;;;;;;4944893;29;20093;-66
2022/01/18 04:06:50;;;;;;;19.60;2.57;;;5.40;99.90;;;;;;4944293;28;20082;-69
2022/01/18 04:09:16;;;;;;;12.90;1.87;;;5.50;99.90;;;;;;4928200;28;20055;-66
2022/01/18 04:11:42;;;;;;;14.67;2.53;;;5.50;99.90;;;;;;4945036;28;20043;-66
2022/01/18 04:14:08;;;;;;;16.92;2.65;;;5.50;99.90;;;;;;4945521;28;20290;-68
2022/01/18 04:16:43;;;;;;;11.38;3.00;;;5.60;99.90;;;;;;4941993;28;20514;-66
2022/01/18 04:27:21;;;;;;;12.05;2.28;;;5.70;99.90;;;;;;4945872;28;20107;-66
2022/01/18 04:29:46;;;;;;;16.43;2.40;;;5.70;99.90;;;;;;4945613;28;20484;-66
2022/01/18 04:32:12;;;;;;;18.50;2.07;;;5.70;99.90;;;;;;4944067;28;20129;-66
2022/01/18 04:34:38;;;;;;;16.60;2.30;;;5.70;99.90;;;;;;4943731;28;20083;-66
2022/01/18 04:37:04;;;;;;;14.10;2.30;;;5.70;99.90;;;;;;4946776;28;20616;-66
2022/01/18 04:39:37;;;;;;;16.83;3.35;;;5.70;99.90;;;;;;4941808;28;20700;-66
2022/01/18 04:42:02;;;;;;;12.98;3.00;;;5.80;99.90;;;;;;4945084;28;20054;-66
2022/01/18 04:49:51;;;;;;;11.57;2.50;;;5.80;99.90;;;;;;4944641;28;20055;-66
2022/01/18 04:52:18;;;;;;;19.05;2.85;;;5.80;99.90;;;;;;4947987;28;20247;-66
2022/01/18 04:54:46;;;;;;;11.70;2.42;;;5.80;99.90;;;;;;4945416;29;20138;-66
2022/01/18 04:59:38;;;;;;;16.15;2.65;;;5.80;99.90;;;;;;4948488;28;20436;-66
2022/01/18 05:02:04;;;;;;;13.93;2.53;;;5.80;99.90;;;;;;4948525;28;20043;-66
2022/01/18 05:04:30;;;;;;;15.75;3.03;;;5.80;99.90;;;;;;4942315;28;20547;-65
2022/01/18 05:07:01;;;;;;;11.67;2.20;;;5.80;99.90;;;;;;4941704;28;20067;-65
2022/01/18 05:09:26;;;;;;;14.05;3.28;;;5.80;99.90;;;;;;4955716;28;20043;-66
2022/01/18 05:12:02;;;;;;;10.90;3.07;;;5.80;99.90;;;;;;4954079;28;20039;-65
2022/01/18 05:14:31;;;;;;;14.25;2.72;;;5.80;99.90;;;;;;4958821;28;20130;-66
2022/01/18 05:20:36;;;;;;;14.65;2.83;;;5.80;99.90;;;;;;4908463;29;20079;-66
2022/01/18 05:22:59;;;;;;;11.90;2.97;;;5.80;99.90;;;;;;4909420;29;20079;-65
2022/01/18 05:25:26;;;;;;;12.88;3.03;;;5.80;99.90;;;;;;4931035;28;20142;-66
2022/01/18 05:27:51;;;;;;;12.88;3.22;;;5.80;99.90;;;;;;4943551;29;20094;-66
2022/01/18 05:30:17;;;;;;;17.30;3.60;;;5.80;99.90;;;;;;4948488;29;20059;-66
2022/01/18 05:32:43;;;;;;;14.50;3.13;;;5.80;99.90;;;;;;4944620;28;20062;-65
2022/01/18 05:35:08;;;;;;;14.60;2.53;;;5.80;99.90;;;;;;4943486;29;20194;-66
2022/01/18 05:37:34;;;;;;;10.07;2.40;;;5.80;99.90;;;;;;4946267;28;20481;-66
2022/01/18 05:40:00;;;;;;;13.70;2.80;;;5.80;99.90;;;;;;4947632;28;20039;-66
2022/01/18 05:42:26;;;;;;;16.17;1.93;;;5.90;99.90;;;;;;4941629;28;20039;-65
2022/01/18 05:44:51;;;;;;;14.37;2.60;;;5.80;99.90;;;;;;4943607;28;20039;-66
2022/01/18 05:47:17;;;;;;;11.07;2.23;;;5.80;99.90;;;;;;4930332;29;20481;-66
2022/01/18 05:49:42;;;;;;;12.23;2.90;;;5.80;99.90;;;;;;4951770;28;20285;-66
2022/01/18 05:52:08;;;;;;;9.03;2.17;;;5.90;99.90;;;;;;4947654;28;20039;-66
2022/01/18 05:54:33;;;;;;;20.03;2.90;;;5.80;99.90;;;;;;4944969;28;20607;-65
2022/01/18 05:56:59;;;;;;;21.63;3.70;;;5.80;99.90;;;;;;4949312;28;20043;-66
2022/01/18 05:59:34;;;;;;;6.60;1.90;;;5.80;99.90;;;;;;4945827;28;20430;-66
2022/01/18 06:02:03;;;;;;;12.70;2.70;;;5.90;99.90;;;;;;4945573;28;20047;-66
2022/01/18 06:07:14;;;;;;;15.82;2.83;;;5.80;99.90;;;;;;4941514;28;20047;-66
2022/01/18 06:09:39;;;;;;;13.63;2.43;;;5.80;99.90;;;;;;4941334;28;20500;-66
2022/01/18 06:12:05;;;;;;;15.53;2.90;;;5.80;99.90;;;;;;4945341;28;20047;-66
2022/01/18 06:14:31;;;;;;;13.45;2.63;;;5.80;99.90;;;;;;4945139;28;20079;-66
2022/01/18 06:16:56;;;;;;;15.37;2.90;;;5.80;99.90;;;;;;4939262;28;20052;-65
2022/01/18 06:19:22;;;;;;;17.73;2.13;;;5.80;99.90;;;;;;4945464;28;20047;-66
2022/01/18 06:21:47;;;;;;;13.00;2.40;;;5.80;99.90;;;;;;4946317;28;20490;-66
2022/01/18 06:24:13;;;;;;;8.73;2.50;;;5.80;99.90;;;;;;4942943;28;20493;-66
2022/01/18 06:26:39;;;;;;;14.73;2.60;;;5.80;99.90;;;;;;4926457;28;20066;-66
2022/01/18 06:29:04;;;;;;;16.92;3.08;;;5.80;99.90;;;;;;4946907;28;20149;-66
2022/01/18 06:31:30;;;;;;;8.87;2.30;;;5.80;99.90;;;;;;4945056;28;20522;-66
2022/01/18 06:33:56;;;;;;;11.60;2.87;;;5.80;99.90;;;;;;4945100;29;20035;-66
2022/01/18 06:36:21;;;;;;;9.67;2.37;;;5.80;99.90;;;;;;4944145;28;20122;-66
2022/01/18 06:38:47;;;;;;;12.67;2.57;;;5.80;99.90;;;;;;4941614;28;20136;-66
2022/01/18 06:41:12;;;;;;;11.17;2.90;;;5.80;99.90;;;;;;4938166;28;20035;-66
2022/01/18 06:43:38;;;;;;;17.67;4.47;;;5.80;99.90;;;;;;4948324;28;20054;-66
2022/01/18 06:46:04;;;;;;;20.17;4.10;;;5.80;99.90;;;;;;4946450;28;20544;-66
2022/01/18 06:48:32;;;;;;;16.17;3.00;;;5.70;99.90;;;;;;4947821;28;20205;-65
2022/01/18 06:50:58;;;;;;;9.10;2.17;;;5.80;99.90;;;;;;4945661;28;20051;-66
2022/01/18 06:53:24;;;;;;;8.00;3.27;;;5.80;99.90;;;;;;4945304;28;20058;-66
2022/01/18 06:55:53;;;;;;;15.63;3.40;;;5.70;99.90;;;;;;4944579;28;20049;-65
2022/01/18 06:58:19;;;;;;;17.95;3.95;;;5.80;99.90;;;;;;4942388;28;20051;-66
2022/01/18 07:00:44;;;;;;;13.00;4.43;;;5.80;99.90;;;;;;4945031;28;20190;-66
2022/01/18 07:03:10;;;;;;;20.33;4.03;;;5.70;99.90;;;;;;4941748;28;20038;-67
2022/01/18 07:05:37;;;;;;;13.93;3.55;;;5.80;99.90;;;;;;4945512;28;20546;-66
2022/01/18 07:08:03;;;;;;;15.82;3.05;;;5.70;99.90;;;;;;4939552;28;20051;-66
2022/01/18 07:10:31;;;;;;;20.93;3.63;;;5.70;99.90;;;;;;4942298;28;20047;-65
2022/01/18 07:12:58;;;;;;;14.73;3.22;;;5.70;99.90;;;;;;4947484;28;20122;-66
2022/01/18 07:15:23;;;;;;;13.80;3.03;;;5.70;99.90;;;;;;4944094;28;20043;-66
2022/01/18 07:17:49;;;;;;;10.10;2.93;;;5.70;99.90;;;;;;4943116;28;20054;-66
2022/01/18 07:20:14;;;;;;;17.77;3.50;;;5.70;99.90;;;;;;4948118;28;20182;-66
2022/01/18 07:22:42;;;;;;;16.80;4.20;;;5.70;99.90;;;;;;4941725;28;20042;-66
2022/01/18 07:25:15;;;;;;;9.38;2.67;;;5.70;99.90;;;;;;4941382;28;20412;-66
2022/01/18 07:27:40;;;;;;;16.65;4.00;;;5.60;99.90;;;;;;4937847;28;21570;-71
2022/01/18 07:30:07;;;;;;;10.47;3.70;;;5.70;99.90;;;;;;4945415;29;20035;-67
2022/01/18 07:32:32;;;;;;;26.27;4.85;;;5.60;99.90;;;;;;4944741;29;20039;-68
2022/01/18 07:34:58;;;;;;;25.07;4.90;;;5.60;99.90;;;;;;4941653;28;20055;-68
2022/01/18 07:37:24;;;;;;;13.60;4.03;;;5.60;99.90;;;;;;4945970;28;20074;-67
2022/01/18 07:39:51;;;;;;;14.80;3.80;;;5.60;99.90;;;;;;4938495;28;20126;-73
2022/01/18 07:42:18;;;;;;;19.73;3.90;;;5.60;99.90;;;;;;4943594;28;20047;-69
2022/01/18 07:44:44;;;;;;;;;;;5.60;99.90;;;;;;4938131;28;20051;-66
2022/01/18 07:47:09;;;;;;;15.07;4.13;;;5.60;99.90;;;;;;4942148;28;19926;-66
2022/01/18 07:49:35;;;;;;;13.67;3.57;;;5.60;99.90;;;;;;4943200;28;20043;-66
2022/01/18 07:52:01;;;;;;;15.80;4.63;;;5.70;99.90;;;;;;4944474;28;20302;-66
2022/01/18 07:54:26;;;;;;;16.57;4.60;;;5.60;99.90;;;;;;4954796;28;20448;-66
2022/01/18 07:56:52;;;;;;;11.40;4.10;;;5.60;99.90;;;;;;4943927;28;20392;-66
2022/01/18 07:59:17;;;;;;;16.17;4.23;;;5.70;99.90;;;;;;4942278;29;20043;-66
2022/01/18 08:01:43;;;;;;;17.60;4.53;;;5.70;99.90;;;;;;4944763;29;20043;-66
2022/01/18 08:04:09;;;;;;;19.60;4.97;;;5.70;99.90;;;;;;4937336;28;20508;-66
2022/01/18 08:06:35;;;;;;;19.10;3.65;;;5.70;99.90;;;;;;4938841;28;20031;-66
2022/01/18 08:09:00;;;;;;;18.90;5.13;;;5.70;99.90;;;;;;4926689;28;20737;-67
2022/01/18 08:11:26;;;;;;;21.50;4.60;;;5.70;99.90;;;;;;4941375;28;20047;-67
2022/01/18 08:13:51;;;;;;;18.03;4.40;;;5.80;99.90;;;;;;4939367;28;20047;-66
2022/01/18 08:18:47;;;;;;;13.38;4.25;;;5.80;99.90;;;;;;4949880;28;20582;-66
2022/01/18 08:21:13;;;;;;;19.63;3.87;;;5.80;99.90;;;;;;4940603;28;20039;-67
2022/01/18 08:23:38;;;;;;;15.23;4.10;;;5.80;99.90;;;;;;4939272;28;20035;-67
2022/01/18 08:26:04;;;;;;;17.87;3.93;;;5.80;99.90;;;;;;4939879;28;20113;-66
2022/01/18 08:28:29;;;;;;;15.70;4.10;;;5.80;99.90;;;;;;4946388;28;20047;-66
2022/01/18 08:30:55;;;;;;;15.80;4.47;;;5.80;99.90;;;;;;4948463;28;20496;-66
2022/01/18 08:33:21;;;;;;;21.87;5.40;;;5.90;99.90;;;;;;4944182;28;20078;-67
2022/01/18 08:35:46;;;;;;;18.77;5.03;;;6.00;99.90;;;;;;4947730;28;20196;-66
2022/01/18 08:38:12;;;;;;;13.10;4.03;;;6.00;99.90;;;;;;4949703;28;20110;-66
2022/01/18 08:40:37;;;;;;;16.03;4.47;;;5.90;99.90;;;;;;4942942;28;20092;-66
2022/01/18 08:43:03;;;;;;;17.30;4.93;;;6.00;99.90;;;;;;4948122;28;20397;-66
2022/01/18 08:45:28;;;;;;;18.03;4.27;;;6.00;99.90;;;;;;4972797;23;20050;-70
2022/01/18 08:47:54;;;;;;;11.00;4.77;;;6.00;99.90;;;;;;4976059;28;20034;-69
2022/01/18 08:50:20;;;;;;;17.13;3.73;;;6.00;99.90;;;;;;4975640;28;20113;-70
2022/01/18 08:52:50;;;;;;;10.97;3.37;;;6.00;99.90;;;;;;4968631;28;20033;-69
2022/01/18 08:55:17;;;;;;;11.65;3.15;;;6.10;99.90;;;;;;4978574;28;20038;-70
2022/01/18 08:57:43;;;;;;;10.43;2.63;;;6.10;99.90;;;;;;4977217;28;20061;-70
2022/01/18 09:00:10;;;;;;;12.13;4.87;;;6.10;99.90;;;;;;4969452;28;20061;-69
2022/01/18 09:02:36;;;;;;;12.88;3.53;;;6.10;99.90;;;;;;4972897;28;20403;-69
2022/01/18 09:05:03;;;;;;;10.10;3.10;;;6.10;99.90;;;;;;4975711;28;20224;-70
2022/01/18 09:07:29;;;;;;;11.15;3.30;;;6.10;99.90;;;;;;4973938;28;20062;-69
2022/01/18 09:10:03;;;;;;;16.17;4.33;;;6.20;99.90;;;;;;4971148;28;20042;-69
2022/01/18 09:12:28;;;;;;;14.52;4.15;;;6.20;99.90;;;;;;4972927;28;20050;-69
2022/01/18 09:14:54;;;;;;;12.27;3.40;;;6.20;99.90;;;;;;4976510;28;20034;-70
2022/01/18 09:17:20;;;;;;;13.47;3.70;;;6.20;99.90;;;;;;4972263;28;20125;-70
2022/01/18 09:19:45;;;;;;;12.80;3.60;;;6.30;99.90;;;;;;4975420;28;20050;-70
2022/01/18 09:22:11;;;;;;;11.30;2.97;;;6.30;99.90;;;;;;4979604;28;20392;-70
2022/01/18 09:24:36;;;;;;;16.03;3.77;;;6.30;99.90;;;;;;4978176;28;20042;-70
2022/01/18 09:27:02;;;;;;;11.40;2.90;;;6.30;99.90;;;;;;4980589;28;20042;-70
2022/01/18 09:29:30;;;;;;;11.15;2.78;;;6.40;99.90;;;;;;4979188;28;20031;-69
2022/01/18 09:31:56;;;;;;;11.20;3.17;;;6.40;99.90;;;;;;4975190;28;20038;-69
2022/01/18 09:34:22;;;;;;;9.52;2.95;;;6.40;99.90;;;;;;4973176;28;20042;-70
2022/01/18 09:36:48;;;;;;;10.43;2.42;;;6.40;99.90;;;;;;4978012;28;20189;-70
2022/01/18 09:39:14;;;;;;;7.27;2.70;;;6.40;99.90;;;;;;4976192;28;20125;-69
2022/01/18 09:41:42;;;;;;;13.70;2.73;;;6.40;99.90;;;;;;4995167;28;20079;-70
2022/01/18 09:44:08;;;;;;;9.05;2.20;;;6.40;99.90;;;;;;4975687;28;20038;-69
2022/01/18 09:46:34;;;;;;;8.57;2.50;;;6.40;99.90;;;;;;4967316;28;20110;-69
2022/01/18 09:49:01;;;;;;;14.55;2.85;;;6.40;99.90;;;;;;4971897;28;20449;-70
2022/01/18 09:51:28;;;;;;;8.77;2.47;;;6.60;99.90;;;;;;4973378;28;20035;-69
2022/01/18 09:53:55;;;;;;;10.13;3.47;;;6.50;99.90;;;;;;4974918;28;20837;-70
2022/01/18 09:56:21;;;;;;;8.13;2.53;;;6.50;99.90;;;;;;4977431;28;20057;-69
2022/01/18 09:58:46;;;;;;;8.17;2.40;;;6.50;99.90;;;;;;4974332;28;20042;-70
2022/01/18 10:01:12;;;;;;;8.10;2.60;;;6.60;99.90;;;;;;4963202;28;20511;-70
2022/01/18 10:03:39;;;;;;;7.40;2.70;;;6.60;99.90;;;;;;4976967;28;20070;-70
2022/01/18 10:06:06;;;;;;;5.03;2.10;;;6.60;99.90;;;;;;4978191;28;20522;-70
2022/01/18 10:08:33;;;;;;;7.47;2.67;;;6.60;99.90;;;;;;4969417;28;20149;-69
2022/01/18 10:11:04;;;;;;;6.13;2.42;;;6.60;99.90;;;;;;4975112;28;20042;-70
2022/01/18 10:13:33;;;;;;;12.23;3.05;;;6.60;99.90;;;;;;4971935;28;20051;-70
2022/01/18 10:16:09;;;;;;;11.20;3.22;;;6.60;99.90;;;;;;4974469;28;20057;-70
2022/01/18 10:18:49;;;;;;;9.30;3.07;;;6.60;99.90;;;;;;4977004;28;20042;-70
2022/01/18 10:21:31;;;;;;;7.93;2.88;;;6.60;99.90;;;;;;4974346;28;20045;-69
2022/01/18 10:24:22;;;;;;;6.55;2.60;;;6.60;99.90;;;;;;4979112;28;20262;-70
2022/01/18 10:26:50;;;;;;;8.18;2.42;;;6.60;99.90;;;;;;4974633;28;20427;-70
2022/01/18 10:29:19;;;;;;;10.50;3.33;;;6.50;99.90;;;;;;4976137;28;20042;-69
2022/01/18 10:34:43;;;;;;;10.13;2.80;;;6.60;99.90;;;;;;4978249;28;20569;-70
2022/01/18 10:37:15;;;;;;;8.98;3.08;;;6.60;99.90;;;;;;4976774;28;20038;-69
2022/01/18 10:39:54;;;;;;;11.02;3.53;;;6.60;99.90;;;;;;4970074;28;20065;-70
2022/01/18 10:42:36;;;;;;;8.15;3.00;;;6.60;99.90;;;;;;4971929;28;20053;-70
2022/01/18 10:45:22;;;;;;;9.05;3.53;;;6.60;99.90;;;;;;4990904;28;20042;-70
2022/01/18 10:47:57;;;;;;;13.02;4.15;;;6.60;99.90;;;;;;4954961;28;20045;-70
2022/01/18 10:50:29;;;;;;;12.25;4.13;;;6.60;99.90;;;;;;4967241;28;20408;-70
2022/01/18 10:53:13;;;;;;;10.48;4.05;;;6.70;99.90;;;;;;4973223;28;20382;-70
2022/01/18 10:55:40;;;;;;;9.93;3.15;;;6.60;99.90;;;;;;4978688;28;20038;-70
2022/01/18 10:58:13;;;;;;;13.38;3.67;;;6.70;99.90;;;;;;4969108;28;20125;-70
2022/01/18 11:00:40;;;;;;;14.95;4.72;;;6.70;99.90;;;;;;4972924;28;20380;-69
2022/01/18 11:03:07;;;;;;;11.50;4.30;;;6.60;99.90;;;;;;4969516;28;20041;-69
2022/01/18 11:05:35;;;;;;;13.73;3.95;;;6.70;99.90;;;;;;4971530;28;20176;-69
2022/01/18 11:08:04;;;;;;;18.20;2.92;;;6.70;99.90;;;;;;4973771;28;20084;-69
2022/01/18 11:10:32;;;;;;;11.40;3.17;;;6.70;99.90;;;;;;4974825;28;20045;-70
2022/01/18 11:13:23;;;;;;;9.57;2.90;;;6.70;99.90;;;;;;4976387;28;20407;-69
2022/01/18 11:15:52;;;;;;;8.40;2.78;;;6.70;99.90;;;;;;4976507;28;20054;-70
2022/01/18 11:18:29;;;;;;;7.20;2.80;;;6.70;99.90;;;;;;4976214;28;20034;-69
2022/01/18 11:20:55;;;;;;;11.05;3.17;;;6.80;99.90;;;;;;4974443;28;20065;-69
2022/01/18 11:23:22;;;;;;;;;;;6.70;99.90;;;;;;4974823;28;20073;-69
2022/01/18 11:25:50;;;;;;;8.90;2.97;;;6.80;99.90;;;;;;4980853;28;19926;-70
2022/01/18 11:28:16;;;;;;;14.25;3.25;;;6.80;99.90;;;;;;4972425;28;20476;-69
2022/01/18 11:30:45;;;;;;;10.25;3.60;;;6.80;99.90;;;;;;4977541;28;20118;-69
2022/01/18 11:33:12;;;;;;;9.02;2.90;;;6.80;99.90;;;;;;4975854;28;20043;-69
2022/01/18 11:35:58;;;;;;;12.70;4.53;;;6.90;99.90;;;;;;4973709;28;20077;-69
2022/01/18 11:38:45;;;;;;;12.85;3.63;;;6.90;99.90;;;;;;4977575;28;20092;-69
2022/01/18 11:41:20;;;;;;;;;;;6.90;99.90;;;;;;4976351;28;20046;-69
2022/01/18 11:43:46;;;;;;;9.65;3.28;;;6.90;99.90;;;;;;4978807;28;19922;-70
2022/01/18 11:46:34;;;;;;;14.73;3.70;;;6.90;99.90;;;;;;4981685;28;20053;-69
2022/01/18 11:49:17;;;;;;;10.38;4.28;;;7.00;99.90;;;;;;4978153;28;20131;-69
2022/01/18 11:51:52;;;;;;;23.88;4.90;;;7.00;99.90;;;;;;4980496;28;20181;-70
2022/01/18 11:54:56;;;;;;;21.48;5.47;;;7.00;99.90;;;;;;4956472;28;20401;-68
2022/01/18 11:57:22;;;;;;;16.45;4.97;;;7.10;99.90;;;;;;4975589;28;20050;-69
2022/01/18 12:00:11;;;;;;;16.67;4.70;;;7.00;99.90;;;;;;4969304;28;20400;-69
2022/01/18 12:02:42;;;;;;;14.70;3.92;;;7.10;99.90;;;;;;4968583;28;20050;-69
2022/01/18 12:05:19;;;;;;;8.55;3.42;;;7.00;99.90;;;;;;4973211;28;20146;-69
2022/01/18 12:07:47;;;;;;;11.20;3.60;;;7.00;99.90;;;;;;4972904;28;20057;-69
2022/01/18 12:10:34;;;;;;;12.65;3.40;;;6.90;99.90;;;;;;4979165;28;20499;-69
2022/01/18 12:13:04;;;;;;;11.07;3.25;;;6.90;99.90;;;;;;4976107;28;20050;-78
2022/01/18 12:15:32;;;;;;;14.43;4.22;;;6.80;99.90;;;;;;4977758;28;20034;-69
2022/01/18 12:17:59;;;;;;;12.20;3.58;;;6.80;99.90;;;;;;4983034;28;20073;-75
2022/01/18 12:20:42;;;;;;;10.55;4.80;;;6.80;99.90;;;;;;4956857;28;20065;-72
2022/01/18 12:23:23;;;;;;;12.13;4.00;;;6.80;99.90;;;;;;4980116;28;20422;-74
2022/01/18 12:25:56;;;;;;;9.50;4.50;;;6.80;99.90;;;;;;4978242;28;20470;-69
2022/01/18 12:34:30;;;;;;;10.20;3.72;;;6.70;99.90;;;;;;4981060;28;20061;-70
2022/01/18 12:37:08;;;;;;;11.65;4.40;;;6.70;99.90;;;;;;4977067;28;20072;-69
2022/01/18 12:39:53;;;;;;;14.38;4.38;;;6.70;99.90;;;;;;4973279;28;20140;-69
2022/01/18 12:45:22;;;;;;;17.42;4.40;;;6.70;99.90;;;;;;4978989;28;20105;-70
2022/01/18 12:47:59;;;;;;;10.65;4.07;;;6.70;99.90;;;;;;4981164;28;20074;-70
2022/01/18 12:50:43;;;;;;;8.73;4.72;;;6.80;99.90;;;;;;4975318;28;20030;-69
2022/01/18 12:53:17;;;;;;;11.07;4.05;;;6.80;99.90;;;;;;4968098;28;20391;-70
2022/01/18 12:55:47;;;;;;;15.38;4.25;;;6.80;99.90;;;;;;4973714;28;20121;-69
2022/01/18 12:58:34;;;;;;;7.88;4.18;;;6.80;99.90;;;;;;4971876;28;20038;-74
2022/01/18 13:01:03;;;;;;;11.10;4.00;;;6.80;99.90;;;;;;4970758;28;20041;-72
2022/01/18 13:03:47;;;;;;;11.40;4.05;;;6.90;99.90;;;;;;4958347;28;20145;-71
2022/01/18 13:06:16;;;;;;;14.85;4.18;;;6.80;99.90;;;;;;4973171;28;20072;-74
2022/01/18 13:08:47;;;;;;;14.45;4.57;;;6.80;99.90;;;;;;4980742;28;20086;-68
2022/01/18 13:11:16;;;;;;;13.18;4.18;;;6.70;99.90;;;;;;4973123;28;20130;-69
2022/01/18 13:13:49;;;;;;;10.23;4.20;;;6.70;99.90;;;;;;4961518;28;20054;-73
2022/01/18 13:27:11;;;;;;;17.88;4.35;;;6.70;99.90;;;;;;4979596;28;20046;-74
2022/01/18 13:29:37;;;;;;;12.80;4.15;;;6.70;99.90;;;;;;4977742;28;20042;-74
2022/01/18 13:32:19;;;;;;;11.67;4.03;;;6.70;99.90;;;;;;4974786;28;20061;-68
2022/01/18 13:34:49;;;;;;;12.07;5.20;;;6.70;99.90;;;;;;4973460;28;20503;-68
2022/01/18 13:37:19;;;;;;;12.23;4.82;;;6.70;99.90;;;;;;4983105;28;20476;-69
2022/01/18 13:39:54;;;;;;;9.90;4.68;;;6.60;99.90;;;;;;4981896;28;20064;-69
2022/01/18 13:42:25;;;;;;;9.98;5.15;;;6.70;99.90;;;;;;4975039;28;20046;-69
2022/01/18 13:45:18;;;;;;;15.05;5.40;;;6.60;99.90;;;;;;4977836;28;20053;-69
2022/01/18 13:48:06;;;;;;;15.90;5.30;;;6.50;99.90;;;;;;4974253;28;20030;-69
2022/01/18 13:50:37;;;;;;;15.18;6.65;;;6.40;99.90;;;;;;4975404;28;20047;-69
2022/01/18 13:53:18;;;;;;;17.33;6.20;;;6.40;99.90;;;;;;4976588;28;20035;-69
2022/01/18 13:55:58;;;;;;;14.00;6.38;;;6.30;99.90;;;;;;4973343;28;20051;-69
2022/01/18 13:58:36;;;;;;;21.83;6.35;;;6.30;99.90;;;;;;4971027;28;20131;-69
2022/01/18 14:01:17;;;;;;;20.52;6.25;;;6.30;99.90;;;;;;4962305;28;20038;-69
2022/01/18 14:03:45;;;;;;;17.77;6.35;;;6.30;99.90;;;;;;4971502;28;20443;-68
2022/01/18 14:06:16;;;;;;;17.92;5.88;;;6.30;99.90;;;;;;4974869;28;20109;-69
2022/01/18 14:08:53;;;;;;;21.02;7.22;;;6.30;99.90;;;;;;4983857;28;20038;-69
2022/01/18 14:11:25;;;;;;;21.30;7.78;;;6.30;99.90;;;;;;4975141;28;20582;-69
2022/01/18 14:13:53;;;;;;;22.90;8.43;;;6.30;99.90;;;;;;4969923;28;20045;-68
2022/01/18 14:16:20;;;;;;;24.50;8.70;;;6.30;99.90;;;;;;4972662;28;20046;-69
2022/01/18 14:18:54;;;;;;;21.25;9.00;;;6.30;99.90;;;;;;4974151;28;20101;-68
2022/01/18 14:21:26;;;;;;;25.05;8.35;;;6.20;99.90;;;;;;4974488;28;20042;-69
2022/01/18 14:24:14;;;;;;;23.52;8.45;;;6.20;99.90;;;;;;4975133;28;20439;-68
2022/01/18 14:26:56;;;;;;;20.55;8.02;;;6.20;99.90;;;;;;4976794;28;20085;-69
2022/01/18 14:29:25;;;;;;;29.15;9.38;;;6.20;99.90;;;;;;4972307;28;20529;-69